Time;durP1;ratioP1;P1;durP2;ratioP2;P2;SDS_P1;SDS_P2;PMS_P1;PMS_P2;Temp;Humidity;BMP_temperature;BMP_pressure;BME280_temperature;BME280_humidity;BME280_pressure;Samples;Min_cycle;Max_cycle;Signal;HPM_P1;HPM_P2
2022/07/12 00:00:49;;;;;;;18.57;17.10;;;;;;;11.04;100.00;99400.47;2075332;28;20191;-78
2022/07/12 00:01:51;;;;;;;19.58;17.98;;;;;;;11.07;100.00;99393.75;2075076;28;20192;-78
2022/07/12 00:02:54;;;;;;;19.92;17.88;;;;;;;11.07;100.00;99389.22;2074332;28;20219;-78
2022/07/12 00:03:56;;;;;;;19.15;17.75;;;;;;;11.07;100.00;99394.53;2074501;28;20697;-78
2022/07/12 00:04:58;;;;;;;19.35;17.83;;;;;;;11.08;100.00;99390.78;2074802;28;20247;-78
2022/07/12 00:05:59;;;;;;;19.88;18.25;;;;;;;11.04;100.00;99389.81;2065791;28;20197;-77
2022/07/12 00:07:01;;;;;;;19.83;18.17;;;;;;;11.07;100.00;99399.09;2074361;28;20259;-78
2022/07/12 00:08:06;;;;;;;20.20;18.42;;;;;;;11.08;100.00;99401.47;2066591;28;20205;-78
2022/07/12 00:09:07;;;;;;;19.75;17.98;;;;;;;11.12;100.00;99397.16;2066811;28;20201;-78
2022/07/12 00:10:12;;;;;;;19.83;18.13;;;;;;;11.10;100.00;99387.81;2074600;28;20235;-78
2022/07/12 00:11:13;;;;;;;18.85;17.45;;;;;;;11.13;100.00;99396.06;2074361;28;20231;-78
2022/07/12 00:12:15;;;;;;;19.57;17.80;;;;;;;11.16;100.00;99392.00;2074399;28;20185;-78
2022/07/12 00:13:17;;;;;;;19.33;17.77;;;;;;;11.18;100.00;99393.28;2073219;28;20350;-78
2022/07/12 00:14:18;;;;;;;19.42;17.77;;;;;;;11.15;100.00;99390.44;2074254;28;20201;-78
2022/07/12 00:15:21;;;;;;;19.77;18.17;;;;;;;11.14;100.00;99389.63;2074956;28;20290;-78
2022/07/12 00:16:24;;;;;;;19.65;18.13;;;;;;;11.16;100.00;99402.69;2074212;28;20287;-78
2022/07/12 00:17:25;;;;;;;21.02;18.98;;;;;;;11.17;100.00;99399.72;2074385;28;20184;-78
2022/07/12 00:18:27;;;;;;;20.67;18.97;;;;;;;11.20;100.00;99404.47;2075255;28;20173;-78
2022/07/12 00:19:27;;;;;;;21.02;19.23;;;;;;;11.20;100.00;99399.13;2074532;28;20671;-78
2022/07/12 00:20:29;;;;;;;26.87;19.60;;;;;;;11.24;100.00;99402.81;2074387;28;20571;-78
2022/07/12 00:21:32;;;;;;;21.50;19.50;;;;;;;11.23;100.00;99400.44;2075337;28;20300;-78
2022/07/12 00:22:33;;;;;;;20.25;18.50;;;;;;;11.23;100.00;99403.13;2074984;28;20185;-78
2022/07/12 00:23:35;;;;;;;20.60;18.80;;;;;;;11.23;100.00;99403.13;2074908;28;20219;-78
2022/07/12 00:24:37;;;;;;;21.42;19.63;;;;;;;11.25;100.00;99400.94;2074181;28;20204;-78
2022/07/12 00:25:38;;;;;;;21.40;19.60;;;;;;;11.26;100.00;99408.66;2074353;28;20180;-78
2022/07/12 00:26:40;;;;;;;22.30;20.40;;;;;;;11.27;100.00;99404.91;2075003;28;20222;-77
2022/07/12 00:27:40;;;;;;;21.60;19.63;;;;;;;11.25;100.00;99396.41;2074927;28;20191;-78
2022/07/12 00:28:43;;;;;;;21.83;19.80;;;;;;;11.26;100.00;99403.31;2074716;28;20339;-78
2022/07/12 00:29:46;;;;;;;21.67;19.60;;;;;;;11.29;100.00;99408.09;2074564;28;20238;-78
2022/07/12 00:30:48;;;;;;;22.13;19.60;;;;;;;11.33;100.00;99406.41;2074122;28;20216;-78
2022/07/12 00:31:49;;;;;;;20.65;18.92;;;;;;;11.33;100.00;99410.97;2066266;28;20211;-78
2022/07/12 00:32:50;;;;;;;20.90;19.07;;;;;;;11.33;100.00;99409.09;2074387;28;20200;-78
2022/07/12 00:33:51;;;;;;;20.33;18.63;;;;;;;11.36;100.00;99405.03;2074241;28;20284;-78
2022/07/12 00:34:53;;;;;;;21.20;19.30;;;;;;;11.38;100.00;99405.56;2074232;28;20590;-78
2022/07/12 00:35:55;;;;;;;22.15;20.17;;;;;;;11.37;100.00;99403.16;2073711;28;20204;-78
2022/07/12 00:36:57;;;;;;;22.25;20.23;;;;;;;11.39;100.00;99401.78;2074471;28;20239;-78
2022/07/12 00:37:58;;;;;;;23.15;20.85;;;;;;;11.41;100.00;99404.16;2074133;28;20246;-78
2022/07/12 00:39:02;;;;;;;22.77;20.00;;;;;;;11.42;100.00;99405.75;2074256;28;20235;-78
2022/07/12 00:40:05;;;;;;;22.23;20.33;;;;;;;11.44;100.00;99407.03;2074169;28;20222;-78
2022/07/12 00:41:06;;;;;;;22.60;20.40;;;;;;;11.43;100.00;99410.00;2066512;28;20204;-78
2022/07/12 00:42:07;;;;;;;22.17;20.25;;;;;;;11.42;100.00;99406.53;2074274;28;20192;-78
2022/07/12 00:43:09;;;;;;;21.87;20.03;;;;;;;11.45;100.00;99407.81;2074772;28;20279;-78
2022/07/12 00:44:11;;;;;;;23.15;20.90;;;;;;;11.47;100.00;99408.34;2074768;28;20577;-78
2022/07/12 00:45:13;;;;;;;21.98;19.90;;;;;;;11.47;100.00;99405.69;2074937;28;20204;-78
2022/07/12 00:46:16;;;;;;;22.45;20.20;;;;;;;11.47;100.00;99403.00;2074991;28;20250;-78
2022/07/12 00:47:27;;;;;;;26.20;20.38;;;;;;;11.47;100.00;99403.00;2074841;28;20200;-78
2022/07/12 00:48:28;;;;;;;22.70;20.35;;;;;;;11.49;100.00;99398.94;2074999;28;20173;-78
2022/07/12 00:49:30;;;;;;;22.65;20.52;;;;;;;11.53;100.00;99396.47;2074946;28;20204;-78
2022/07/12 00:50:32;;;;;;;21.00;19.27;;;;;;;11.50;100.00;99407.75;2074730;28;20210;-78
2022/07/12 00:51:33;;;;;;;22.70;20.25;;;;;;;11.49;100.00;99395.47;2073866;28;20227;-78
2022/07/12 00:52:38;;;;;;;20.97;19.07;;;;;;;11.49;100.00;99401.63;2066221;28;20199;-78
2022/07/12 00:53:39;;;;;;;22.40;20.30;;;;;;;11.52;100.00;99408.25;2074047;28;20287;-78
2022/07/12 00:54:41;;;;;;;22.48;20.50;;;;;;;11.53;100.00;99405.28;2074702;28;20192;-78
2022/07/12 00:55:42;;;;;;;22.02;20.13;;;;;;;11.51;100.00;99406.66;2074815;28;20196;-78
2022/07/12 00:56:44;;;;;;;22.60;20.40;;;;;;;11.58;100.00;99417.78;2073864;28;20220;-78
2022/07/12 00:57:46;;;;;;;22.23;20.17;;;;;;;11.60;100.00;99413.72;2074895;28;20192;-78
2022/07/12 00:58:51;;;;;;;22.40;20.10;;;;;;;11.58;100.00;99409.75;2082118;28;20291;-78
2022/07/12 00:59:53;;;;;;;22.95;20.50;;;;;;;11.59;100.00;99414.00;2081723;28;20204;-78
2022/07/12 01:00:56;;;;;;;22.58;20.65;;;;;;;11.58;100.00;99415.88;2074104;28;20544;-78
2022/07/12 01:01:57;;;;;;;22.33;20.17;;;;;;;11.59;100.00;99416.69;2082235;28;20191;-78
2022/07/12 01:03:02;;;;;;;22.37;20.37;;;;;;;11.58;100.00;99418.56;2083870;28;20688;-78
2022/07/12 01:04:04;;;;;;;23.08;20.98;;;;;;;11.61;100.00;99417.16;2082075;28;20209;-78
2022/07/12 01:05:09;;;;;;;23.15;20.75;;;;;;;11.61;100.00;99425.97;2074068;28;20218;-78
2022/07/12 01:06:10;;;;;;;21.60;19.80;;;;;;;11.61;100.00;99427.88;2074007;28;20196;-78
2022/07/12 01:07:13;;;;;;;22.88;20.65;;;;;;;11.59;100.00;99422.81;2082112;28;20226;-78
2022/07/12 01:08:15;;;;;;;22.67;20.42;;;;;;;11.64;100.00;99421.94;2082312;28;20199;-78
2022/07/12 01:09:16;;;;;;;23.13;21.00;;;;;;;11.61;100.00;99423.31;2082761;28;20248;-78
2022/07/12 01:10:17;;;;;;;23.25;21.08;;;;;;;11.60;100.00;99419.06;2082149;28;20202;-78
2022/07/12 01:11:19;;;;;;;24.97;22.33;;;;;;;11.63;100.00;99419.53;2082330;28;20674;-78
2022/07/12 01:12:20;;;;;;;23.85;21.55;;;;;;;11.64;100.00;99419.28;2082723;28;20200;-78
2022/07/12 01:13:22;;;;;;;23.02;20.85;;;;;;;11.65;100.00;99418.19;2082749;28;20219;-78
2022/07/12 01:14:23;;;;;;;22.90;20.83;;;;;;;11.71;100.00;99410.84;2081938;28;20203;-78
2022/07/12 01:15:26;;;;;;;23.13;21.13;;;;;;;11.70;100.00;99417.28;2082310;28;20208;-78
2022/07/12 01:16:27;;;;;;;22.48;20.15;;;;;;;11.68;100.00;99406.09;2082038;28;20481;-78
2022/07/12 01:17:29;;;;;;;24.93;21.40;;;;;;;11.68;100.00;99420.25;2073880;28;20674;-78
2022/07/12 01:18:35;;;;;;;23.67;21.30;;;;;;;11.68;100.00;99417.59;2082139;28;20192;-78
2022/07/12 01:19:42;;;;;;;23.45;21.15;;;;;;;11.67;100.00;99412.53;2082922;28;20634;-78
2022/07/12 01:20:44;;;;;;;22.98;20.98;;;;;;;11.66;100.00;99417.09;2082705;28;20508;-78
2022/07/12 01:21:48;;;;;;;23.67;21.33;;;;;;;11.65;100.00;99414.72;2081316;28;20318;-78
2022/07/12 01:22:52;;;;;;;24.15;21.73;;;;;;;11.68;100.00;99420.25;2082110;28;20196;-78
2022/07/12 01:23:53;;;;;;;23.40;20.98;;;;;;;11.67;100.00;99413.34;2082665;28;20195;-78
2022/07/12 01:24:56;;;;;;;23.60;21.38;;;;;;;11.67;100.00;99413.34;2082189;28;20219;-78
2022/07/12 01:26:01;;;;;;;23.77;21.52;;;;;;;11.70;100.00;99412.75;2082611;28;20191;-78
2022/07/12 01:27:03;;;;;;;23.75;21.42;;;;;;;11.71;100.00;99408.19;2081957;28;20198;-78
2022/07/12 01:28:06;;;;;;;23.30;21.10;;;;;;;11.69;100.00;99410.38;2081910;28;20187;-78
2022/07/12 01:29:08;;;;;;;22.75;20.63;;;;;;;11.69;100.00;99403.13;2082401;28;20195;-79
2022/07/12 01:30:10;;;;;;;23.45;21.17;;;;;;;11.71;100.00;99408.97;2081395;28;20210;-79
2022/07/12 01:31:11;;;;;;;24.05;21.52;;;;;;;11.68;100.00;99400.75;2081897;28;20223;-78
2022/07/12 01:32:29;;;;;;;23.40;21.07;;;;;;;11.70;100.00;99403.94;2082243;28;20646;-79
2022/07/12 01:33:32;;;;;;;26.65;21.27;;;;;;;11.69;100.00;99405.00;2082809;28;20559;-79
2022/07/12 01:34:36;;;;;;;22.98;20.58;;;;;;;11.71;100.00;99402.84;2082480;28;20805;-79
2022/07/12 01:35:39;;;;;;;22.27;20.15;;;;;;;11.71;100.00;99400.16;2073950;28;20223;-79
2022/07/12 01:36:42;;;;;;;23.63;21.35;;;;;;;11.73;100.00;99395.34;2081734;28;20306;-79
2022/07/12 01:37:44;;;;;;;23.42;21.13;;;;;;;11.72;100.00;99394.53;2081998;28;20586;-78
2022/07/12 01:38:46;;;;;;;23.50;20.83;;;;;;;11.71;100.00;99397.50;2081843;28;20198;-79
2022/07/12 01:39:49;;;;;;;23.83;21.27;;;;;;;11.73;100.00;99400.69;2082610;28;20212;-78
2022/07/12 01:40:50;;;;;;;23.83;21.50;;;;;;;11.70;100.00;99390.56;2081808;28;20262;-78
2022/07/12 01:41:53;;;;;;;24.27;21.88;;;;;;;11.72;100.00;99393.72;2073675;28;20200;-79
2022/07/12 01:42:55;;;;;;;24.10;21.60;;;;;;;11.70;100.00;99398.59;2082201;28;20601;-78
2022/07/12 01:43:56;;;;;;;24.05;21.88;;;;;;;11.71;100.00;99406.31;2082498;28;20188;-79
2022/07/12 01:44:58;;;;;;;23.43;20.97;;;;;;;11.71;100.00;99402.84;2083177;28;20214;-78
2022/07/12 01:45:59;;;;;;;23.17;21.10;;;;;;;11.74;100.00;99402.28;2082471;28;20235;-79
2022/07/12 01:47:01;;;;;;;23.93;21.37;;;;;;;11.77;100.00;99401.66;2081759;28;20203;-78
2022/07/12 01:48:03;;;;;;;27.23;21.73;;;;;;;11.76;100.00;99402.75;2082127;28;20591;-78
2022/07/12 01:49:06;;;;;;;27.30;22.17;;;;;;;11.75;100.00;99404.63;2081289;28;20203;-79
2022/07/12 01:50:08;;;;;;;26.50;22.35;;;;;;;11.80;100.00;99401.88;2082491;28;20195;-79
2022/07/12 01:51:10;;;;;;;24.58;21.02;;;;;;;11.81;100.00;99400.00;2082078;28;20187;-78
2022/07/12 01:52:11;;;;;;;23.63;21.20;;;;;;;11.82;100.00;99401.63;2082389;28;20237;-78
2022/07/12 01:53:15;;;;;;;24.40;20.98;;;;;;;11.79;100.00;99394.94;2083321;28;20188;-79
2022/07/12 01:54:19;;;;;;;23.52;21.30;;;;;;;11.81;100.00;99397.34;2082180;28;20215;-78
2022/07/12 01:55:23;;;;;;;23.63;21.45;;;;;;;11.81;100.00;99398.13;2082616;28;20208;-79
2022/07/12 01:56:25;;;;;;;24.50;22.08;;;;;;;11.83;100.00;99393.28;2082623;28;20529;-78
2022/07/12 01:57:28;;;;;;;25.00;22.33;;;;;;;11.82;100.00;99393.59;2082389;28;20215;-78
2022/07/12 01:58:29;;;;;;;24.52;22.08;;;;;;;11.80;100.00;99398.41;2082846;28;20314;-78
2022/07/12 01:59:30;;;;;;;25.35;22.75;;;;;;;11.82;100.00;99399.72;2081679;28;20230;-78
2022/07/12 02:00:33;;;;;;;28.10;23.05;;;;;;;11.85;100.00;99393.78;2075422;28;20530;-78
2022/07/12 02:01:36;;;;;;;24.02;21.50;;;;;;;11.86;100.00;99392.69;2081765;28;20194;-78
2022/07/12 02:02:39;;;;;;;25.27;22.60;;;;;;;11.87;100.00;99396.94;2081689;28;20195;-78
2022/07/12 02:03:40;;;;;;;24.90;22.30;;;;;;;11.88;100.00;99398.53;2082547;28;20199;-78
2022/07/12 02:04:42;;;;;;;25.63;23.10;;;;;;;11.90;100.00;99392.88;2082495;28;20188;-78
2022/07/12 02:05:43;;;;;;;27.00;22.25;;;;;;;11.89;100.00;99386.75;2082101;28;20195;-78
2022/07/12 02:06:46;;;;;;;25.20;22.57;;;;;;;11.89;100.00;99400.13;2081498;28;20273;-78
2022/07/12 02:07:47;;;;;;;26.25;23.27;;;;;;;11.91;100.00;99399.84;2082304;28;20278;-78
2022/07/12 02:08:48;;;;;;;25.27;22.52;;;;;;;11.85;100.00;99385.75;2083272;28;20184;-78
2022/07/12 02:09:51;;;;;;;26.20;23.38;;;;;;;11.88;100.00;99393.19;2081634;28;20231;-78
2022/07/12 02:10:54;;;;;;;26.25;22.55;;;;;;;11.88;100.00;99390.50;2082803;28;20233;-78
2022/07/12 02:11:55;;;;;;;27.00;22.08;;;;;;;11.86;100.00;99390.03;2081149;28;20293;-78
2022/07/12 02:12:57;;;;;;;24.73;22.33;;;;;;;11.84;100.00;99397.56;2073499;28;20204;-78
2022/07/12 02:13:58;;;;;;;26.20;23.42;;;;;;;11.84;100.00;99394.88;2082019;28;20733;-78
2022/07/12 02:15:00;;;;;;;27.53;23.73;;;;;;;11.84;100.00;99396.75;2081148;28;20550;-78
2022/07/12 02:16:00;;;;;;;27.60;22.80;;;;;;;11.80;100.00;99391.19;2073384;28;20275;-78
2022/07/12 02:17:04;;;;;;;25.83;22.27;;;;;;;11.84;100.00;99397.56;2081773;28;20302;-78
2022/07/12 02:18:06;;;;;;;24.58;22.05;;;;;;;11.81;100.00;99392.78;2082434;28;20191;-78
2022/07/12 02:19:10;;;;;;;24.53;22.07;;;;;;;11.83;100.00;99404.00;2083111;28;20203;-78
2022/07/12 02:20:12;;;;;;;25.45;22.75;;;;;;;11.84;100.00;99400.22;2081595;28;20210;-78
2022/07/12 02:21:14;;;;;;;26.98;24.13;;;;;;;11.86;100.00;99406.06;2081051;28;20235;-78
2022/07/12 02:22:16;;;;;;;26.75;23.92;;;;;;;11.85;100.00;99404.47;2073672;28;20204;-78
2022/07/12 02:23:17;;;;;;;26.65;22.58;;;;;;;11.82;100.00;99398.94;2081715;28;20681;-78
2022/07/12 02:24:19;;;;;;;28.20;23.20;;;;;;;11.84;100.00;99400.22;2081590;28;20200;-78
2022/07/12 02:25:22;;;;;;;27.42;22.73;;;;;;;11.88;100.00;99403.09;2073376;28;20275;-78
2022/07/12 02:26:25;;;;;;;27.70;22.33;;;;;;;11.92;100.00;99400.63;2081678;28;20195;-78
2022/07/12 02:27:29;;;;;;;27.80;22.63;;;;;;;11.94;100.00;99399.25;2081663;28;20230;-78
2022/07/12 02:28:31;;;;;;;27.55;23.13;;;;;;;11.93;100.00;99400.34;2081510;28;20203;-78
2022/07/12 02:29:33;;;;;;;25.63;21.90;;;;;;;11.91;100.00;99389.16;2081906;28;20187;-78
2022/07/12 02:30:33;;;;;;;25.20;22.60;;;;;;;11.92;100.00;99398.75;2082190;28;20184;-78
2022/07/12 02:31:35;;;;;;;26.53;23.73;;;;;;;11.92;100.00;99398.75;2082273;28;20196;-78
2022/07/12 02:32:36;;;;;;;25.25;22.70;;;;;;;11.93;100.00;99396.88;2082323;28;20188;-78
2022/07/12 02:33:39;;;;;;;31.63;23.27;;;;;;;11.89;100.00;99396.66;2081485;28;20203;-78
2022/07/12 02:34:40;;;;;;;25.55;22.83;;;;;;;11.94;100.00;99401.13;2081760;28;20422;-77
2022/07/12 02:35:42;;;;;;;26.63;22.43;;;;;;;11.88;100.00;99393.19;2082118;28;20302;-78
2022/07/12 02:36:44;;;;;;;24.25;21.85;;;;;;;11.89;100.00;99400.13;2081390;28;20219;-78
2022/07/12 02:37:46;;;;;;;25.83;23.17;;;;;;;11.92;100.00;99397.97;2082519;28;20211;-77
2022/07/12 02:38:47;;;;;;;29.40;22.98;;;;;;;11.93;100.00;99402.22;2082166;28;20188;-77
2022/07/12 02:39:48;;;;;;;25.47;22.83;;;;;;;11.94;100.00;99390.44;2082171;28;20190;-78
2022/07/12 02:40:55;;;;;;;23.70;21.50;;;;;;;11.94;100.00;99390.44;2082144;28;20601;-78
2022/07/12 02:41:57;;;;;;;26.20;23.10;;;;;;;11.91;100.00;99399.06;2081039;28;20218;-77
2022/07/12 02:42:59;;;;;;;24.75;22.38;;;;;;;11.88;100.00;99403.88;2073350;28;20196;-78
2022/07/12 02:44:01;;;;;;;24.40;21.98;;;;;;;11.89;100.00;99402.00;2081767;28;20696;-78
2022/07/12 02:45:03;;;;;;;25.38;22.27;;;;;;;11.85;100.00;99404.47;2082227;28;20697;-78
2022/07/12 02:46:06;;;;;;;24.80;22.33;;;;;;;11.88;100.00;99403.09;2082245;28;20195;-78
2022/07/12 02:47:07;;;;;;;24.58;22.08;;;;;;;11.89;100.00;99405.47;2082324;28;20199;-78
2022/07/12 02:48:10;;;;;;;23.87;21.57;;;;;;;11.86;100.00;99395.38;2081380;28;20195;-78
2022/07/12 02:49:13;;;;;;;24.33;22.00;;;;;;;11.85;100.00;99403.69;2081581;28;20191;-78
2022/07/12 02:50:14;;;;;;;24.55;21.83;;;;;;;11.85;100.00;99398.34;2082086;28;20222;-78
2022/07/12 02:51:15;;;;;;;27.87;22.93;;;;;;;11.87;100.00;99402.28;2080977;28;20223;-78
2022/07/12 02:52:16;;;;;;;24.60;22.27;;;;;;;11.88;100.00;99403.88;2073205;28;20239;-78
2022/07/12 02:53:18;;;;;;;24.50;22.10;;;;;;;11.88;100.00;99408.44;2073324;28;20247;-78
2022/07/12 02:54:19;;;;;;;27.05;22.35;;;;;;;11.85;100.00;99409.81;2081598;28;20302;-78
2022/07/12 02:55:21;;;;;;;29.30;22.92;;;;;;;11.82;100.00;99399.72;2082145;28;20670;-78
2022/07/12 02:56:26;;;;;;;24.88;22.08;;;;;;;11.84;100.00;99402.09;2082118;28;20194;-78
2022/07/12 02:57:27;;;;;;;25.08;22.48;;;;;;;11.85;100.00;99412.50;2081289;28;20314;-78
2022/07/12 02:58:29;;;;;;;27.30;23.07;;;;;;;11.84;100.00;99410.91;2081957;28;20219;-78
2022/07/12 02:59:30;;;;;;;24.13;21.95;;;;;;;11.82;100.00;99406.97;2081386;28;20615;-78
2022/07/12 03:00:31;;;;;;;25.03;22.53;;;;;;;11.84;100.00;99410.13;2073566;28;20227;-78
2022/07/12 03:01:32;;;;;;;29.17;22.85;;;;;;;11.81;100.00;99408.03;2081568;28;20191;-78
2022/07/12 03:02:35;;;;;;;25.10;22.63;;;;;;;11.82;100.00;99410.44;2082134;28;20176;-78
2022/07/12 03:03:37;;;;;;;26.60;23.20;;;;;;;11.84;100.00;99412.81;2081536;28;20705;-78
2022/07/12 03:04:40;;;;;;;25.08;22.52;;;;;;;11.85;100.00;99406.38;2073348;28;20267;-78
2022/07/12 03:05:42;;;;;;;24.90;22.35;;;;;;;11.87;100.00;99406.84;2081594;28;20200;-78
2022/07/12 03:06:43;;;;;;;27.05;24.08;;;;;;;11.86;100.00;99411.41;2082393;28;20229;-78
2022/07/12 03:07:44;;;;;;;28.90;22.88;;;;;;;11.88;100.00;99405.75;2081997;28;20192;-78
2022/07/12 03:08:46;;;;;;;25.40;22.90;;;;;;;11.88;100.00;99411.91;2081489;28;20203;-78
2022/07/12 03:09:47;;;;;;;25.67;23.13;;;;;;;11.87;100.00;99410.31;2081443;28;20188;-78
2022/07/12 03:10:50;;;;;;;25.57;22.87;;;;;;;11.86;100.00;99406.06;2082027;28;20192;-78
2022/07/12 03:11:52;;;;;;;25.58;22.83;;;;;;;11.85;100.00;99409.03;2082253;28;20259;-78
2022/07/12 03:12:54;;;;;;;28.30;24.33;;;;;;;11.86;100.00;99406.06;2073301;28;20694;-78
2022/07/12 03:13:54;;;;;;;25.98;23.15;;;;;;;11.87;100.00;99404.19;2081528;28;20231;-78
2022/07/12 03:14:56;;;;;;;25.57;23.07;;;;;;;11.87;100.00;99407.66;2082260;28;20195;-77
2022/07/12 03:15:57;;;;;;;25.50;22.85;;;;;;;11.89;100.00;99412.69;2080949;28;20254;-78
2022/07/12 03:17:00;;;;;;;25.83;23.03;;;;;;;11.91;100.00;99405.19;2081488;28;20682;-77
2022/07/12 03:18:01;;;;;;;28.30;22.17;;;;;;;11.91;100.00;99407.88;2081347;28;20729;-78
2022/07/12 03:19:05;;;;;;;27.55;24.58;;;;;;;11.92;100.00;99414.00;2073164;28;20637;-78
2022/07/12 03:20:08;;;;;;;26.17;23.38;;;;;;;11.93;100.00;99412.91;2073560;28;20659;-78
2022/07/12 03:21:11;;;;;;;32.30;23.70;;;;;;;11.93;100.00;99415.59;2080885;28;20204;-78
2022/07/12 03:22:11;;;;;;;25.75;23.30;;;;;;;11.96;100.00;99414.97;2082293;28;20172;-77
2022/07/12 03:23:13;;;;;;;25.83;23.27;;;;;;;11.99;100.00;99425.06;2082026;28;20274;-78
2022/07/12 03:24:14;;;;;;;26.58;23.75;;;;;;;11.96;100.00;99421.13;2082049;28;20191;-78
2022/07/12 03:25:16;;;;;;;26.50;23.77;;;;;;;11.97;100.00;99427.25;2082113;28;20195;-77
2022/07/12 03:26:17;;;;;;;25.80;23.30;;;;;;;11.95;100.00;99424.88;2081965;28;20195;-78
2022/07/12 03:27:20;;;;;;;29.83;23.88;;;;;;;11.98;100.00;99428.84;2081483;28;20620;-78
2022/07/12 03:28:21;;;;;;;27.30;24.48;;;;;;;12.01;100.00;99422.91;2081274;28;20195;-78
2022/07/12 03:29:23;;;;;;;25.50;23.20;;;;;;;12.03;100.00;99426.88;2081807;28;20184;-78
2022/07/12 03:30:23;;;;;;;28.17;24.33;;;;;;;12.01;100.00;99434.41;2082005;28;20188;-77
2022/07/12 03:31:25;;;;;;;26.80;24.37;;;;;;;12.01;100.00;99422.91;2082000;28;20211;-77
2022/07/12 03:32:26;;;;;;;26.63;24.13;;;;;;;12.00;100.00;99421.34;2081346;28;20428;-78
2022/07/12 03:33:28;;;;;;;27.73;24.97;;;;;;;12.02;100.00;99429.84;2073103;28;20246;-78
2022/07/12 03:34:28;;;;;;;26.85;24.08;;;;;;;12.01;100.00;99434.41;2081359;28;20188;-78
2022/07/12 03:35:30;;;;;;;27.60;24.80;;;;;;;12.01;100.00;99426.38;2082296;28;20194;-77
2022/07/12 03:36:32;;;;;;;29.98;25.30;;;;;;;12.02;100.00;99427.19;2080723;28;20231;-77
2022/07/12 03:37:42;;;;;;;27.58;24.83;;;;;;;12.01;100.00;99428.28;2081386;28;20204;-77
2022/07/12 03:38:44;;;;;;;28.00;24.98;;;;;;;12.03;100.00;99426.09;2081602;28;20602;-78
2022/07/12 03:39:47;;;;;;;29.33;24.63;;;;;;;12.03;100.00;99428.75;2081975;28;20725;-77
2022/07/12 03:40:49;;;;;;;29.45;24.67;;;;;;;12.03;100.00;99429.56;2084018;28;20677;-77
2022/07/12 03:41:50;;;;;;;31.45;25.42;;;;;;;12.04;100.00;99427.66;2080835;28;20200;-77
2022/07/12 03:42:53;;;;;;;29.00;26.07;;;;;;;12.04;100.00;99427.66;2073248;28;20689;-77
2022/07/12 03:43:54;;;;;;;27.83;25.02;;;;;;;12.06;100.00;99428.16;2081326;28;20187;-79
2022/07/12 03:44:55;;;;;;;29.07;26.00;;;;;;;12.05;100.00;99427.38;2081190;28;20191;-78
2022/07/12 03:45:56;;;;;;;29.27;26.10;;;;;;;12.06;100.00;99428.16;2073285;28;20197;-79
2022/07/12 03:46:59;;;;;;;30.07;26.93;;;;;;;12.03;100.00;99426.09;2081419;28;20270;-79
2022/07/12 03:48:00;;;;;;;37.22;28.92;;;;;;;12.05;100.00;99429.25;2081801;28;20219;-78
2022/07/12 03:49:02;;;;;;;34.23;30.23;;;;;;;12.00;100.00;99419.47;2074480;28;20287;-78
2022/07/12 03:50:04;;;;;;;35.83;30.60;;;;;;;12.00;100.00;99424.81;2082719;28;20227;-78
2022/07/12 03:51:06;;;;;;;34.35;30.63;;;;;;;12.00;100.00;99424.81;2082861;28;20537;-78
2022/07/12 03:52:09;;;;;;;37.38;30.08;;;;;;;12.00;100.00;99422.13;2083315;28;20536;-78
2022/07/12 03:53:12;;;;;;;36.60;30.52;;;;;;;11.99;100.00;99411.72;2082693;28;20257;-78
2022/07/12 03:54:13;;;;;;;34.75;31.08;;;;;;;11.96;100.00;99410.44;2074663;28;20273;-78
2022/07/12 03:55:15;;;;;;;36.57;30.33;;;;;;;11.97;100.00;99416.56;2074453;28;20546;-78
2022/07/12 03:57:13;;;;;;;37.05;30.75;;;;;;;11.99;100.00;99420.56;2083720;28;20215;-78
2022/07/12 03:57:38;;;;;;;36.38;30.80;;;;;;;11.98;100.00;99418.94;2082362;28;20254;-77
2022/07/12 03:58:40;;;;;;;36.47;31.15;;;;;;;11.99;100.00;99417.06;2082824;28;20716;-78
2022/07/12 03:59:44;;;;;;;34.42;30.80;;;;;;;11.99;100.00;99411.72;2083231;28;20183;-78
2022/07/12 04:00:45;;;;;;;35.17;31.05;;;;;;;11.97;100.00;99419.25;2082626;28;20705;-78
2022/07/12 04:01:46;;;;;;;36.92;31.10;;;;;;;11.95;100.00;99421.41;2074419;28;20227;-78
2022/07/12 04:02:47;;;;;;;37.80;31.07;;;;;;;11.96;100.00;99415.78;2082703;28;20191;-78
2022/07/12 04:03:48;;;;;;;35.40;30.40;;;;;;;11.95;100.00;99410.72;2082609;28;20215;-78
2022/07/12 04:04:52;;;;;;;37.73;30.50;;;;;;;11.99;100.00;99422.41;2082671;28;20180;-78
2022/07/12 04:05:55;;;;;;;34.63;30.90;;;;;;;12.01;100.00;99415.69;2082713;28;20565;-78
2022/07/12 04:06:55;;;;;;;32.90;29.55;;;;;;;12.01;100.00;99414.91;2083214;28;20191;-78
2022/07/12 04:07:57;;;;;;;36.23;30.07;;;;;;;12.00;100.00;99410.66;2082824;28;20658;-78
2022/07/12 04:08:58;;;;;;;34.97;29.90;;;;;;;12.02;100.00;99422.63;2074432;28;20204;-78
2022/07/12 04:09:59;;;;;;;33.37;29.80;;;;;;;11.99;100.00;99415.19;2082649;28;20219;-78
2022/07/12 04:11:00;;;;;;;33.70;30.15;;;;;;;12.00;100.00;99413.31;2082720;28;20255;-78
2022/07/12 04:12:04;;;;;;;33.13;29.33;;;;;;;11.98;100.00;99407.44;2082608;28;20198;-78
2022/07/12 04:13:06;;;;;;;33.85;29.45;;;;;;;12.00;100.00;99421.34;2082483;28;20203;-78
2022/07/12 04:14:10;;;;;;;32.55;29.15;;;;;;;12.01;100.00;99418.38;2074539;28;20211;-78
2022/07/12 04:15:10;;;;;;;33.55;29.58;;;;;;;11.99;100.00;99420.56;2082619;28;20198;-78
2022/07/12 04:16:12;;;;;;;32.80;29.27;;;;;;;11.98;100.00;99412.78;2082988;28;20708;-78
2022/07/12 04:17:13;;;;;;;32.85;29.42;;;;;;;12.00;100.00;99422.13;2082088;28;20204;-78
2022/07/12 04:18:14;;;;;;;37.60;30.10;;;;;;;12.04;100.00;99412.41;2082740;28;20183;-78
2022/07/12 04:19:16;;;;;;;33.92;29.40;;;;;;;12.06;100.00;99417.47;2082422;28;20560;-78
2022/07/12 04:20:21;;;;;;;33.47;29.67;;;;;;;12.08;100.00;99418.78;2074493;28;20324;-78
2022/07/12 04:21:22;;;;;;;32.67;29.05;;;;;;;12.10;100.00;99415.78;2082039;28;20302;-79
2022/07/12 04:22:24;;;;;;;32.70;29.07;;;;;;;12.11;100.00;99412.03;2082454;28;20183;-78
2022/07/12 04:23:25;;;;;;;33.70;30.15;;;;;;;12.13;100.00;99409.84;2074347;28;20271;-78
2022/07/12 04:24:27;;;;;;;37.00;29.50;;;;;;;12.17;100.00;99416.19;2074269;28;20249;-78
2022/07/12 04:25:28;;;;;;;32.65;29.50;;;;;;;12.18;100.00;99412.44;2082518;28;20624;-78
2022/07/12 04:26:31;;;;;;;33.45;30.25;;;;;;;12.20;100.00;99420.94;2083064;28;20208;-79
2022/07/12 04:27:34;;;;;;;33.10;29.77;;;;;;;12.23;100.00;99420.34;2082390;28;20278;-78
2022/07/12 04:28:35;;;;;;;32.55;28.65;;;;;;;12.22;100.00;99410.72;2082467;28;20198;-78
2022/07/12 04:29:38;;;;;;;32.80;29.80;;;;;;;12.23;100.00;99409.63;2082327;28;20245;-78
2022/07/12 04:30:38;;;;;;;32.58;29.13;;;;;;;12.27;100.00;99415.19;2083556;28;20442;-78
2022/07/12 04:31:40;;;;;;;31.77;28.50;;;;;;;12.31;100.00;99414.28;2081887;28;20196;-78
2022/07/12 04:32:42;;;;;;;31.35;28.42;;;;;;;12.34;100.00;99411.03;2082470;28;20282;-78
2022/07/12 04:33:44;;;;;;;31.45;27.63;;;;;;;12.38;100.00;99411.22;2082990;28;20198;-78
2022/07/12 04:34:46;;;;;;;32.38;29.00;;;;;;;12.39;100.00;99407.44;2082350;28;20191;-78
2022/07/12 04:35:47;;;;;;;31.83;28.10;;;;;;;12.36;100.00;99405.38;2074185;28;20303;-78
2022/07/12 04:36:49;;;;;;;30.80;27.80;;;;;;;12.40;100.00;99404.47;2081932;28;20752;-78
2022/07/12 04:37:49;;;;;;;31.25;28.02;;;;;;;12.37;100.00;99399.72;2083038;28;20298;-78
2022/07/12 04:38:51;;;;;;;30.40;27.43;;;;;;;12.36;100.00;99413.41;2083278;28;20188;-78
2022/07/12 04:39:53;;;;;;;29.80;26.58;;;;;;;12.31;100.00;99405.47;2082266;28;20253;-78
2022/07/12 04:40:56;;;;;;;28.83;26.02;;;;;;;12.28;100.00;99401.53;2082390;28;20203;-78
2022/07/12 04:41:57;;;;;;;29.50;26.35;;;;;;;12.23;100.00;99401.59;2082309;28;20576;-78
2022/07/12 04:42:58;;;;;;;29.27;26.47;;;;;;;12.22;100.00;99401.91;2082563;28;20278;-78